createdAt,value
2017-12-25T00:00:48.929Z,73.20
2017-12-25T00:01:53.925Z,73.40
2017-12-25T00:02:58.746Z,73.60
2017-12-25T00:04:03.569Z,73.60
2017-12-25T00:05:08.723Z,73.30
2017-12-25T00:06:13.673Z,73.00
2017-12-25T00:07:18.507Z,72.20
2017-12-25T00:08:23.443Z,71.70
2017-12-25T00:09:28.386Z,71.00
2017-12-25T00:10:33.384Z,70.40
2017-12-25T00:11:38.479Z,70.20
2017-12-25T00:12:43.328Z,70.30
2017-12-25T00:13:49.301Z,70.10
2017-12-25T00:14:54.314Z,69.50
2017-12-25T00:15:59.318Z,68.90
2017-12-25T00:17:04.337Z,68.40
2017-12-25T00:18:09.247Z,68.10
2017-12-25T00:19:14.160Z,68.00
2017-12-25T00:20:19.138Z,67.70
2017-12-25T00:21:23.889Z,67.30
2017-12-25T00:22:29.331Z,65.10
2017-12-25T00:23:34.382Z,62.70
2017-12-25T00:24:39.373Z,62.50
2017-12-25T00:25:44.388Z,61.40
2017-12-25T00:26:49.237Z,62.30
2017-12-25T00:27:54.435Z,62.10
2017-12-25T00:28:59.194Z,61.30
2017-12-25T00:30:04.176Z,58.90
2017-12-25T00:31:09.285Z,57.70
2017-12-25T00:32:14.725Z,57.80
2017-12-25T00:33:19.617Z,57.10
2017-12-25T00:34:24.437Z,57.00
2017-12-25T00:35:29.361Z,56.40
2017-12-25T00:36:34.395Z,55.80
2017-12-25T00:37:39.596Z,55.60
2017-12-25T00:38:45.009Z,55.50
2017-12-25T00:39:50.385Z,55.70
2017-12-25T00:40:56.076Z,55.80
2017-12-25T00:42:02.285Z,55.60
2017-12-25T00:43:08.316Z,55.30
2017-12-25T00:44:13.405Z,55.20
2017-12-25T00:45:18.221Z,54.70
2017-12-25T00:46:23.138Z,54.80
2017-12-25T00:47:28.349Z,54.70
2017-12-25T00:48:34.057Z,54.60
2017-12-25T00:49:39.614Z,54.60
2017-12-25T00:50:45.101Z,55.50
2017-12-25T00:51:50.676Z,54.60
2017-12-25T00:52:56.109Z,54.60
2017-12-25T00:54:02.026Z,54.30
2017-12-25T00:55:07.626Z,54.40
2017-12-25T00:56:13.349Z,54.50
2017-12-25T00:57:19.118Z,54.30
2017-12-25T00:58:24.672Z,54.30
2017-12-25T00:59:30.437Z,54.40
2017-12-25T01:00:35.724Z,54.40
2017-12-25T01:01:41.013Z,54.50
2017-12-25T01:02:46.619Z,54.20
2017-12-25T01:03:52.179Z,54.20
2017-12-25T01:04:57.733Z,54.80
2017-12-25T01:06:03.464Z,55.40
2017-12-25T01:07:09.201Z,57.00
2017-12-25T01:08:14.449Z,58.00
2017-12-25T01:09:20.053Z,58.30
2017-12-25T01:10:25.619Z,58.30
2017-12-25T01:11:31.351Z,58.50
2017-12-25T01:12:37.227Z,59.10
2017-12-25T01:13:42.931Z,59.00
2017-12-25T01:14:48.836Z,59.00
2017-12-25T01:15:54.508Z,59.20
2017-12-25T01:17:00.144Z,59.30
2017-12-25T01:18:05.462Z,59.40
2017-12-25T01:19:10.861Z,59.40
2017-12-25T01:20:16.471Z,59.40
2017-12-25T01:21:22.161Z,59.40
2017-12-25T01:22:27.691Z,59.40
2017-12-25T01:23:33.327Z,59.50
2017-12-25T01:24:38.968Z,59.70
2017-12-25T01:25:44.623Z,59.60
2017-12-25T01:26:50.787Z,59.80
2017-12-25T01:27:56.582Z,60.20
2017-12-25T01:29:02.051Z,59.70
2017-12-25T01:30:07.942Z,59.70
2017-12-25T01:31:13.687Z,59.80
2017-12-25T01:32:19.501Z,59.70
2017-12-25T01:33:25.189Z,59.80
2017-12-25T01:34:30.914Z,59.80
2017-12-25T01:35:36.676Z,59.80
2017-12-25T01:36:42.476Z,59.80
2017-12-25T01:37:48.389Z,59.80
2017-12-25T01:38:54.214Z,59.80
2017-12-25T01:40:00.371Z,59.80
2017-12-25T01:41:06.234Z,59.90
2017-12-25T01:42:11.869Z,60.00
2017-12-25T01:43:17.753Z,59.90
2017-12-25T01:44:23.548Z,59.90
2017-12-25T01:45:29.175Z,60.00
2017-12-25T01:46:35.145Z,59.90
2017-12-25T01:47:40.973Z,60.00
2017-12-25T01:48:46.593Z,59.90
2017-12-25T01:49:52.197Z,59.90
2017-12-25T01:50:57.903Z,59.90
2017-12-25T01:52:03.650Z,60.00
2017-12-25T01:53:09.146Z,60.00
2017-12-25T01:54:14.752Z,60.00
2017-12-25T01:55:20.448Z,60.00
2017-12-25T01:56:26.235Z,60.00
2017-12-25T01:57:31.906Z,60.00
2017-12-25T01:58:37.288Z,60.00
2017-12-25T01:59:42.774Z,59.90
2017-12-25T02:00:48.231Z,59.80
2017-12-25T02:01:53.680Z,59.90
2017-12-25T02:02:58.934Z,59.90
2017-12-25T02:04:04.425Z,59.80
2017-12-25T02:05:09.895Z,59.90
2017-12-25T02:06:15.121Z,59.90
2017-12-25T02:07:20.909Z,59.90
2017-12-25T02:08:26.783Z,59.90
2017-12-25T02:09:32.198Z,60.00
2017-12-25T02:10:37.857Z,60.00
2017-12-25T02:11:43.375Z,59.90
2017-12-25T02:12:48.852Z,60.00
2017-12-25T02:13:54.174Z,59.90
2017-12-25T02:14:59.508Z,59.90
2017-12-25T02:16:05.219Z,59.90
2017-12-25T02:17:10.619Z,59.90
2017-12-25T02:18:16.552Z,59.90
2017-12-25T02:19:22.145Z,60.00
2017-12-25T02:20:27.683Z,60.10
2017-12-25T02:21:33.233Z,60.00
2017-12-25T02:22:39.683Z,59.90
2017-12-25T02:23:45.246Z,59.70
2017-12-25T02:24:50.876Z,59.80
2017-12-25T02:25:56.212Z,59.70
2017-12-25T02:27:02.044Z,59.70
2017-12-25T02:28:07.543Z,59.60
2017-12-25T02:29:13.022Z,59.60
2017-12-25T02:30:18.581Z,59.60
2017-12-25T02:31:24.100Z,59.60
2017-12-25T02:32:29.582Z,59.60
2017-12-25T02:33:34.954Z,59.70
2017-12-25T02:34:40.308Z,59.70
2017-12-25T02:35:45.792Z,59.70
2017-12-25T02:36:51.690Z,59.60
2017-12-25T02:37:58.446Z,59.60
2017-12-25T02:39:04.287Z,59.70
2017-12-25T02:40:09.724Z,59.70
2017-12-25T02:41:15.315Z,59.70
2017-12-25T02:42:20.821Z,59.80
2017-12-25T02:43:26.524Z,59.80
2017-12-25T02:44:32.335Z,59.80
2017-12-25T02:45:38.036Z,59.90
2017-12-25T02:46:44.240Z,59.90
2017-12-25T02:47:49.961Z,60.00
2017-12-25T02:48:55.653Z,59.90
2017-12-25T02:50:01.416Z,60.00
2017-12-25T02:51:07.089Z,60.00
2017-12-25T02:52:12.686Z,60.00
2017-12-25T02:53:19.720Z,60.70
2017-12-25T02:54:25.448Z,60.10
2017-12-25T02:55:31.074Z,60.10
2017-12-25T02:56:37.037Z,60.20
2017-12-25T02:57:42.662Z,60.10
2017-12-25T02:58:48.316Z,60.10
2017-12-25T02:59:53.805Z,60.20
2017-12-25T03:00:59.399Z,60.30
2017-12-25T03:02:04.983Z,60.30
2017-12-25T03:03:10.472Z,60.30
2017-12-25T03:04:16.134Z,60.30
2017-12-25T03:05:21.856Z,60.30
2017-12-25T03:06:28.015Z,60.40
2017-12-25T03:07:33.713Z,60.40
2017-12-25T03:08:40.424Z,60.50
2017-12-25T03:09:46.027Z,60.40
2017-12-25T03:10:51.452Z,60.40
2017-12-25T03:11:57.216Z,60.50
2017-12-25T03:13:02.886Z,60.60
2017-12-25T03:14:08.421Z,60.50
2017-12-25T03:15:14.327Z,60.60
2017-12-25T03:16:20.274Z,60.60
2017-12-25T03:17:26.108Z,60.70
2017-12-25T03:18:31.980Z,60.70
2017-12-25T03:19:37.024Z,60.60
2017-12-25T03:20:41.867Z,60.70
2017-12-25T03:21:46.785Z,60.70
2017-12-25T03:22:51.700Z,60.70
2017-12-25T03:23:57.546Z,60.70
2017-12-25T03:25:02.571Z,60.80
2017-12-25T03:26:07.936Z,60.70
2017-12-25T03:27:12.887Z,60.70
2017-12-25T03:28:17.649Z,60.80
2017-12-25T03:29:22.666Z,60.80
2017-12-25T03:30:27.667Z,60.80
2017-12-25T03:31:32.732Z,60.80
2017-12-25T03:32:37.693Z,60.90
2017-12-25T03:33:42.653Z,60.90
2017-12-25T03:34:47.634Z,60.90
2017-12-25T03:35:52.572Z,61.00
2017-12-25T03:36:57.390Z,61.00
2017-12-25T03:38:02.240Z,61.00
2017-12-25T03:39:07.086Z,61.00
2017-12-25T03:40:12.040Z,61.00
2017-12-25T03:41:17.012Z,61.00
2017-12-25T03:42:22.762Z,61.00
2017-12-25T03:43:27.877Z,61.10
2017-12-25T03:44:32.680Z,61.10
2017-12-25T03:45:37.514Z,61.10
2017-12-25T03:46:42.358Z,61.10
2017-12-25T03:47:47.263Z,61.10
2017-12-25T03:48:52.114Z,61.10
2017-12-25T03:49:57.113Z,61.10
2017-12-25T03:51:01.914Z,61.20
2017-12-25T03:52:06.650Z,61.20
2017-12-25T03:53:11.717Z,61.10
2017-12-25T03:54:16.552Z,61.10
2017-12-25T03:55:21.446Z,61.20
2017-12-25T03:56:26.441Z,61.20
2017-12-25T03:57:31.247Z,61.10
2017-12-25T03:58:36.155Z,61.20
2017-12-25T03:59:41.060Z,61.20
2017-12-25T04:00:47.081Z,61.20
2017-12-25T04:01:52.048Z,61.20
2017-12-25T04:02:56.975Z,61.20
2017-12-25T04:04:01.759Z,61.30
2017-12-25T04:05:06.698Z,61.30
2017-12-25T04:06:11.596Z,61.20
2017-12-25T04:07:16.588Z,61.30
2017-12-25T04:08:21.572Z,62.00
2017-12-25T04:09:26.495Z,61.30
2017-12-25T04:10:31.401Z,61.30
2017-12-25T04:11:36.343Z,61.30
2017-12-25T04:12:41.202Z,61.30
2017-12-25T04:13:46.039Z,61.30
2017-12-25T04:14:50.959Z,61.40
2017-12-25T04:15:55.911Z,61.30
2017-12-25T04:17:00.955Z,61.30
2017-12-25T04:18:05.946Z,61.40
2017-12-25T04:19:11.537Z,61.40
2017-12-25T04:20:16.288Z,61.40
2017-12-25T04:21:21.396Z,61.40
2017-12-25T04:22:26.203Z,61.40
2017-12-25T04:23:31.054Z,61.40
2017-12-25T04:24:36.047Z,61.40
2017-12-25T04:25:41.036Z,61.40
2017-12-25T04:26:45.786Z,61.40
2017-12-25T04:27:50.838Z,61.40
2017-12-25T04:28:55.806Z,61.40
2017-12-25T04:30:01.083Z,61.40
2017-12-25T04:31:05.883Z,61.40
2017-12-25T04:32:10.898Z,61.40
2017-12-25T04:33:15.625Z,61.50
2017-12-25T04:34:20.458Z,61.50
2017-12-25T04:35:25.193Z,61.50
2017-12-25T04:36:30.045Z,61.40
2017-12-25T04:37:35.637Z,61.40
2017-12-25T04:38:40.578Z,61.40
2017-12-25T04:39:45.394Z,61.50
2017-12-25T04:40:50.465Z,61.50
2017-12-25T04:41:55.194Z,61.50
2017-12-25T04:43:00.300Z,61.50
2017-12-25T04:44:05.053Z,61.50
2017-12-25T04:45:10.050Z,61.50
2017-12-25T04:46:14.767Z,61.50
2017-12-25T04:47:19.555Z,61.50
2017-12-25T04:48:24.436Z,61.50
2017-12-25T04:49:29.430Z,61.50
2017-12-25T04:50:34.392Z,61.50
2017-12-25T04:51:39.313Z,61.50
2017-12-25T04:52:44.114Z,61.50
2017-12-25T04:53:49.050Z,61.50
2017-12-25T04:54:53.909Z,61.50
2017-12-25T04:55:59.631Z,61.50
2017-12-25T04:57:04.668Z,61.50
2017-12-25T04:58:09.696Z,61.60
2017-12-25T04:59:14.546Z,61.50
2017-12-25T05:00:19.227Z,61.50
2017-12-25T05:01:24.078Z,61.50
2017-12-25T05:02:28.734Z,61.50
2017-12-25T05:03:33.480Z,61.50
2017-12-25T05:04:38.213Z,61.50
2017-12-25T05:05:43.299Z,61.50
2017-12-25T05:06:48.032Z,61.50
2017-12-25T05:07:52.954Z,61.50
2017-12-25T05:08:57.787Z,61.50
2017-12-25T05:10:02.597Z,61.50
2017-12-25T05:11:07.485Z,61.50
2017-12-25T05:12:12.392Z,61.50
2017-12-25T05:13:17.306Z,61.50
2017-12-25T05:14:23.141Z,61.50
2017-12-25T05:15:28.111Z,61.50
2017-12-25T05:16:32.985Z,61.50
2017-12-25T05:17:37.867Z,61.60
2017-12-25T05:18:42.624Z,61.60
2017-12-25T05:19:47.401Z,61.50
2017-12-25T05:20:52.392Z,61.60
2017-12-25T05:21:57.221Z,61.60
2017-12-25T05:23:02.405Z,61.60
2017-12-25T05:24:07.134Z,61.60
2017-12-25T05:25:12.159Z,61.60
2017-12-25T05:26:16.939Z,61.60
2017-12-25T05:27:22.857Z,61.60
2017-12-25T05:28:27.844Z,61.60
2017-12-25T05:29:32.645Z,61.50
2017-12-25T05:30:37.637Z,61.60
2017-12-25T05:31:42.585Z,61.60
2017-12-25T05:32:48.037Z,61.50
2017-12-25T05:33:52.982Z,61.60
2017-12-25T05:34:57.761Z,61.60
2017-12-25T05:36:02.577Z,61.60
2017-12-25T05:37:07.498Z,61.50
2017-12-25T05:38:12.538Z,61.50
2017-12-25T05:39:17.500Z,61.50
2017-12-25T05:40:22.373Z,61.50
2017-12-25T05:41:27.124Z,61.70
2017-12-25T05:42:32.048Z,61.60
2017-12-25T05:43:36.963Z,61.60
2017-12-25T05:44:41.935Z,61.60
2017-12-25T05:45:46.877Z,61.60
2017-12-25T05:46:51.811Z,61.70
2017-12-25T05:47:56.543Z,61.50
2017-12-25T05:49:01.625Z,61.50
2017-12-25T05:50:06.510Z,61.60
2017-12-25T05:51:11.836Z,61.50
2017-12-25T05:52:16.804Z,61.50
2017-12-25T05:53:21.728Z,61.50
2017-12-25T05:54:26.661Z,61.50
2017-12-25T05:55:31.394Z,61.50
2017-12-25T05:56:36.488Z,61.60
2017-12-25T05:57:41.587Z,61.60
2017-12-25T05:58:46.347Z,61.60
2017-12-25T05:59:51.316Z,61.70
2017-12-25T06:00:56.132Z,61.70
2017-12-25T06:02:00.968Z,61.60
2017-12-25T06:03:06.068Z,61.70
2017-12-25T06:04:10.898Z,61.70
2017-12-25T06:05:15.778Z,61.70
2017-12-25T06:06:20.672Z,61.70
2017-12-25T06:07:25.739Z,61.70
2017-12-25T06:08:30.763Z,61.80
2017-12-25T06:09:36.211Z,61.70
2017-12-25T06:10:41.194Z,61.70
2017-12-25T06:11:46.377Z,61.80
2017-12-25T06:12:51.310Z,61.80
2017-12-25T06:13:56.239Z,61.90
2017-12-25T06:15:01.921Z,61.90
2017-12-25T06:16:06.991Z,61.90
2017-12-25T06:17:11.779Z,62.60
2017-12-25T06:18:16.536Z,61.90
2017-12-25T06:19:21.351Z,62.00
2017-12-25T06:20:26.190Z,62.00
2017-12-25T06:21:31.009Z,62.00
2017-12-25T06:22:36.114Z,62.10
2017-12-25T06:23:40.957Z,62.10
2017-12-25T06:24:45.781Z,62.20
2017-12-25T06:25:50.550Z,62.40
2017-12-25T06:26:55.447Z,62.40
2017-12-25T06:28:00.766Z,62.40
2017-12-25T06:29:05.722Z,62.40
2017-12-25T06:30:10.556Z,62.40
2017-12-25T06:31:15.500Z,62.30
2017-12-25T06:32:20.572Z,62.40
2017-12-25T06:33:25.558Z,62.40
2017-12-25T06:34:30.482Z,62.40
2017-12-25T06:35:35.480Z,62.50
2017-12-25T06:36:40.457Z,62.50
2017-12-25T06:37:45.246Z,62.50
2017-12-25T06:38:50.184Z,62.50
2017-12-25T06:39:54.932Z,62.50
2017-12-25T06:40:59.889Z,62.50
2017-12-25T06:42:04.843Z,62.60
2017-12-25T06:43:09.764Z,62.60
2017-12-25T06:44:14.656Z,62.60
2017-12-25T06:45:19.487Z,62.60
2017-12-25T06:46:24.604Z,62.60
2017-12-25T06:47:30.084Z,62.70
2017-12-25T06:48:34.817Z,62.60
2017-12-25T06:49:39.773Z,62.60
2017-12-25T06:50:44.696Z,62.70
2017-12-25T06:51:49.468Z,62.70
2017-12-25T06:52:54.190Z,62.70
2017-12-25T06:53:58.924Z,62.70
2017-12-25T06:55:03.713Z,62.80
2017-12-25T06:56:08.620Z,62.80
2017-12-25T06:57:13.597Z,62.80
2017-12-25T06:58:18.413Z,62.80
2017-12-25T06:59:23.359Z,62.90
2017-12-25T07:00:28.101Z,62.90
2017-12-25T07:01:33.198Z,62.90
2017-12-25T07:02:38.075Z,63.00
2017-12-25T07:03:42.866Z,63.00
2017-12-25T07:04:48.565Z,62.90
2017-12-25T07:05:53.309Z,63.00
2017-12-25T07:06:58.056Z,63.00
2017-12-25T07:08:02.890Z,63.00
2017-12-25T07:09:07.710Z,63.10
2017-12-25T07:10:12.686Z,63.10
2017-12-25T07:11:17.553Z,63.00
2017-12-25T07:12:22.525Z,63.00
2017-12-25T07:13:27.324Z,63.10
2017-12-25T07:14:32.206Z,63.10
2017-12-25T07:15:37.032Z,63.10
2017-12-25T07:16:41.936Z,63.10
2017-12-25T07:17:46.916Z,63.20
2017-12-25T07:18:51.696Z,63.20
2017-12-25T07:19:56.761Z,63.20
2017-12-25T07:21:01.573Z,63.10
2017-12-25T07:22:06.572Z,63.30
2017-12-25T07:23:12.050Z,63.30
2017-12-25T07:24:17.017Z,63.20
2017-12-25T07:25:21.755Z,63.30
2017-12-25T07:26:26.544Z,63.30
2017-12-25T07:27:31.524Z,63.40
2017-12-25T07:28:36.259Z,63.30
2017-12-25T07:29:41.576Z,63.40
2017-12-25T07:30:46.342Z,63.30
2017-12-25T07:31:51.305Z,63.40
2017-12-25T07:32:56.036Z,63.30
2017-12-25T07:34:00.768Z,63.30
2017-12-25T07:35:05.529Z,63.50
2017-12-25T07:36:10.401Z,63.30
2017-12-25T07:37:15.177Z,63.50
2017-12-25T07:38:20.034Z,63.40
2017-12-25T07:39:25.289Z,63.50
2017-12-25T07:40:30.287Z,63.40
2017-12-25T07:41:35.777Z,63.60
2017-12-25T07:42:40.769Z,63.50
2017-12-25T07:43:45.812Z,63.50
2017-12-25T07:44:50.667Z,63.50
2017-12-25T07:45:55.612Z,63.50
2017-12-25T07:47:00.485Z,63.50
2017-12-25T07:48:05.458Z,63.70
2017-12-25T07:49:10.302Z,63.70
2017-12-25T07:50:15.285Z,63.60
2017-12-25T07:51:20.309Z,63.60
2017-12-25T07:52:25.106Z,63.70
2017-12-25T07:53:30.300Z,63.80
2017-12-25T07:54:35.168Z,63.70
2017-12-25T07:55:39.947Z,63.80
2017-12-25T07:56:45.101Z,63.80
2017-12-25T07:57:50.318Z,63.80
2017-12-25T07:58:55.247Z,63.80
2017-12-25T08:00:00.560Z,63.90
2017-12-25T08:01:05.498Z,63.90
2017-12-25T08:02:10.412Z,63.90
2017-12-25T08:03:15.929Z,64.00
2017-12-25T08:04:20.787Z,64.00
2017-12-25T08:05:25.773Z,63.90
2017-12-25T08:06:31.485Z,64.00
2017-12-25T08:07:36.538Z,64.10
2017-12-25T08:08:41.399Z,64.10
2017-12-25T08:09:46.125Z,64.20
2017-12-25T08:10:51.046Z,64.10
2017-12-25T08:11:56.020Z,64.20
2017-12-25T08:13:00.926Z,63.80
2017-12-25T08:14:08.361Z,62.10
2017-12-25T08:15:13.170Z,61.50
2017-12-25T08:16:18.223Z,59.50
2017-12-25T08:17:23.089Z,59.20
2017-12-25T08:18:28.026Z,60.00
2017-12-25T08:19:33.063Z,60.00
2017-12-25T08:20:37.898Z,59.80
2017-12-25T08:21:42.717Z,59.70
2017-12-25T08:22:47.553Z,59.60
2017-12-25T08:23:53.006Z,59.60
2017-12-25T08:24:58.131Z,59.50
2017-12-25T08:26:04.291Z,59.40
2017-12-25T08:27:10.219Z,59.40
2017-12-25T08:28:15.177Z,59.40
2017-12-25T08:29:19.982Z,59.40
2017-12-25T08:30:24.780Z,59.40
2017-12-25T08:31:30.430Z,59.40
2017-12-25T08:32:35.180Z,59.30
2017-12-25T08:33:40.705Z,59.30
2017-12-25T08:34:45.626Z,59.20
2017-12-25T08:35:50.459Z,59.20
2017-12-25T08:36:55.369Z,59.30
2017-12-25T08:38:00.129Z,59.20
2017-12-25T08:39:05.083Z,59.10
2017-12-25T08:40:10.092Z,59.10
2017-12-25T08:41:15.027Z,59.10
2017-12-25T08:42:19.949Z,59.10
2017-12-25T08:43:25.016Z,59.10
2017-12-25T08:44:30.193Z,59.10
2017-12-25T08:45:41.256Z,59.10
2017-12-25T08:46:46.540Z,59.00
2017-12-25T08:47:51.453Z,59.20
2017-12-25T08:48:56.430Z,59.40
2017-12-25T08:50:01.441Z,59.40
2017-12-25T08:51:06.484Z,59.50
2017-12-25T08:52:11.524Z,60.10
2017-12-25T08:53:18.375Z,60.50
2017-12-25T08:54:23.333Z,60.20
2017-12-25T08:55:28.306Z,60.20
2017-12-25T08:56:33.124Z,60.20
2017-12-25T08:57:37.986Z,60.30
2017-12-25T08:58:43.334Z,60.50
2017-12-25T08:59:48.299Z,60.80
2017-12-25T09:00:53.238Z,61.10
2017-12-25T09:01:58.230Z,61.40
2017-12-25T09:03:03.270Z,61.60
2017-12-25T09:04:08.228Z,63.00
2017-12-25T09:05:13.279Z,62.60
2017-12-25T09:06:18.169Z,62.80
2017-12-25T09:07:26.184Z,63.40
2017-12-25T09:08:32.281Z,63.30
2017-12-25T09:09:37.229Z,63.50
2017-12-25T09:10:42.311Z,63.30
2017-12-25T09:11:47.351Z,63.50
2017-12-25T09:12:52.146Z,63.60
2017-12-25T09:13:57.045Z,63.70
2017-12-25T09:15:02.153Z,63.70
2017-12-25T09:16:06.985Z,63.50
2017-12-25T09:17:11.838Z,64.20
2017-12-25T09:18:16.708Z,63.60
2017-12-25T09:19:21.737Z,63.50
2017-12-25T09:20:26.936Z,63.60
2017-12-25T09:21:31.926Z,63.60
2017-12-25T09:22:37.010Z,63.60
2017-12-25T09:23:42.115Z,63.70
2017-12-25T09:24:47.613Z,63.80
2017-12-25T09:25:53.534Z,63.70
2017-12-25T09:26:58.394Z,63.90
2017-12-25T09:28:03.353Z,64.50
2017-12-25T09:29:08.400Z,64.70
2017-12-25T09:30:13.528Z,65.00
2017-12-25T09:31:18.598Z,66.10
2017-12-25T09:32:23.442Z,66.20
2017-12-25T09:33:28.443Z,66.00
2017-12-25T09:34:33.272Z,66.20
2017-12-25T09:35:38.260Z,66.30
2017-12-25T09:36:43.304Z,66.30
2017-12-25T09:37:48.221Z,66.40
2017-12-25T09:38:53.215Z,66.60
2017-12-25T09:39:58.093Z,66.90
2017-12-25T09:41:03.006Z,67.00
2017-12-25T09:42:08.033Z,67.10
2017-12-25T09:43:12.905Z,67.30
2017-12-25T09:44:17.934Z,67.30
2017-12-25T09:45:23.188Z,67.60
2017-12-25T09:46:27.966Z,67.60
2017-12-25T09:47:32.906Z,67.80
2017-12-25T09:48:37.756Z,68.10
2017-12-25T09:49:42.589Z,68.30
2017-12-25T09:50:47.622Z,68.50
2017-12-25T09:51:52.578Z,68.40
2017-12-25T09:52:57.922Z,68.70
2017-12-25T09:54:02.882Z,68.80
2017-12-25T09:55:07.706Z,69.00
2017-12-25T09:56:12.714Z,69.00
2017-12-25T09:57:17.922Z,69.10
2017-12-25T09:58:22.907Z,69.10
2017-12-25T09:59:27.726Z,69.50
2017-12-25T10:00:32.606Z,69.60
2017-12-25T10:01:37.556Z,69.80
2017-12-25T10:02:42.716Z,69.80
2017-12-25T10:03:47.700Z,70.00
2017-12-25T10:04:52.698Z,70.40
2017-12-25T10:05:57.657Z,70.30
2017-12-25T10:07:02.458Z,70.40
2017-12-25T10:08:07.382Z,70.50
2017-12-25T10:09:12.312Z,70.50
2017-12-25T10:10:17.050Z,70.70
2017-12-25T10:11:22.114Z,70.70
2017-12-25T10:12:26.888Z,70.50
2017-12-25T10:13:31.738Z,70.00
2017-12-25T10:14:37.260Z,69.80
2017-12-25T10:15:42.467Z,69.70
2017-12-25T10:16:47.630Z,69.60
2017-12-25T10:17:52.902Z,69.80
2017-12-25T10:18:57.738Z,69.80
2017-12-25T10:20:03.102Z,70.10
2017-12-25T10:21:08.325Z,70.30
2017-12-25T10:22:13.275Z,70.50
2017-12-25T10:23:18.195Z,70.70
2017-12-25T10:24:23.127Z,70.80
2017-12-25T10:25:28.091Z,71.00
2017-12-25T10:26:33.094Z,71.10
2017-12-25T10:27:39.401Z,71.10
2017-12-25T10:28:44.360Z,71.30
2017-12-25T10:29:49.692Z,71.30
2017-12-25T10:30:54.729Z,71.40
2017-12-25T10:31:59.578Z,71.60
2017-12-25T10:33:04.695Z,71.80
2017-12-25T10:34:09.875Z,72.00
2017-12-25T10:35:14.767Z,72.10
2017-12-25T10:36:19.991Z,72.10
2017-12-25T10:37:25.680Z,72.20
2017-12-25T10:38:30.734Z,72.20
2017-12-25T10:39:35.593Z,72.40
2017-12-25T10:40:40.639Z,72.40
2017-12-25T10:41:45.569Z,72.50
2017-12-25T10:42:50.699Z,72.50
2017-12-25T10:43:55.939Z,72.80
2017-12-25T10:45:01.074Z,72.80
2017-12-25T10:46:06.029Z,72.80
2017-12-25T10:47:11.568Z,72.80
2017-12-25T10:48:17.016Z,72.90
2017-12-25T10:49:22.305Z,73.00
2017-12-25T10:50:27.133Z,73.10
2017-12-25T10:51:32.824Z,73.10
2017-12-25T10:52:39.185Z,73.20
2017-12-25T10:53:44.204Z,73.00
2017-12-25T10:54:49.490Z,73.40
2017-12-25T10:55:55.045Z,73.30
2017-12-25T10:56:59.964Z,73.50
2017-12-25T10:58:04.817Z,73.60
2017-12-25T10:59:09.651Z,73.40
2017-12-25T11:00:14.516Z,73.30
2017-12-25T11:01:19.312Z,72.90
2017-12-25T11:02:24.314Z,72.50
2017-12-25T11:03:29.178Z,72.00
2017-12-25T11:04:34.195Z,71.30
2017-12-25T11:05:38.968Z,71.30
2017-12-25T11:06:44.116Z,71.00
2017-12-25T11:07:49.178Z,70.90
2017-12-25T11:08:54.214Z,70.60
2017-12-25T11:09:59.193Z,70.50
2017-12-25T11:11:04.067Z,70.40
2017-12-25T11:12:09.009Z,70.30
2017-12-25T11:13:14.134Z,70.30
2017-12-25T11:14:19.135Z,70.20
2017-12-25T11:15:24.327Z,70.00
2017-12-25T11:16:29.445Z,69.90
2017-12-25T11:17:34.302Z,70.00
2017-12-25T11:18:39.401Z,70.10
2017-12-25T11:19:44.381Z,69.90
2017-12-25T11:20:49.380Z,69.70
2017-12-25T11:21:54.182Z,69.70
2017-12-25T11:22:59.074Z,69.70
2017-12-25T11:24:04.172Z,69.50
2017-12-25T11:25:09.154Z,69.40
2017-12-25T11:26:14.064Z,69.20
2017-12-25T11:27:18.976Z,69.10
2017-12-25T11:28:23.921Z,68.50
2017-12-25T11:29:28.962Z,68.10
2017-12-25T11:30:33.911Z,68.00
2017-12-25T11:31:39.088Z,68.00
2017-12-25T11:32:44.247Z,68.10
2017-12-25T11:33:49.529Z,68.20
2017-12-25T11:34:54.418Z,68.10
2017-12-25T11:35:59.294Z,68.20
2017-12-25T11:37:04.684Z,68.20
2017-12-25T11:38:09.592Z,68.10
2017-12-25T11:39:14.629Z,67.90
2017-12-25T11:40:19.724Z,67.80
2017-12-25T11:41:25.655Z,67.70
2017-12-25T11:42:30.756Z,67.70
2017-12-25T11:43:35.812Z,67.70
2017-12-25T11:44:40.847Z,67.50
2017-12-25T11:45:45.732Z,67.50
2017-12-25T11:46:50.660Z,67.60
2017-12-25T11:47:55.909Z,67.60
2017-12-25T11:49:00.889Z,67.50
2017-12-25T11:50:05.961Z,67.50
2017-12-25T11:51:10.832Z,67.50
2017-12-25T11:52:15.770Z,67.40
2017-12-25T11:53:22.549Z,67.40
2017-12-25T11:54:27.577Z,67.40
2017-12-25T11:55:32.642Z,67.30
2017-12-25T11:56:37.945Z,67.30
2017-12-25T11:57:42.758Z,67.30
2017-12-25T11:58:47.806Z,67.50
2017-12-25T11:59:52.805Z,67.70
2017-12-25T12:00:57.912Z,67.70
2017-12-25T12:02:02.935Z,67.70
2017-12-25T12:03:07.983Z,67.80
2017-12-25T12:04:13.058Z,67.70
2017-12-25T12:05:19.108Z,67.70
2017-12-25T12:06:24.195Z,67.70
2017-12-25T12:07:29.151Z,67.70
2017-12-25T12:08:33.904Z,67.60
2017-12-25T12:09:38.842Z,67.50
2017-12-25T12:10:43.838Z,68.10
2017-12-25T12:11:48.856Z,67.30
2017-12-25T12:12:55.608Z,67.20
2017-12-25T12:14:03.699Z,67.20
2017-12-25T12:15:09.054Z,67.10
2017-12-25T12:16:14.279Z,67.10
2017-12-25T12:17:19.239Z,67.50
2017-12-25T12:18:24.271Z,67.90
2017-12-25T12:19:29.559Z,68.50
2017-12-25T12:20:34.538Z,67.70
2017-12-25T12:21:39.947Z,67.40
2017-12-25T12:22:44.810Z,67.40
2017-12-25T12:23:49.749Z,67.40
2017-12-25T12:24:54.628Z,67.90
2017-12-25T12:26:00.217Z,67.40
2017-12-25T12:27:05.183Z,67.40
2017-12-25T12:28:10.383Z,67.50
2017-12-25T12:29:15.651Z,67.40
2017-12-25T12:30:20.497Z,67.40
2017-12-25T12:31:25.434Z,67.40
2017-12-25T12:32:31.268Z,67.50
2017-12-25T12:33:37.110Z,67.50
2017-12-25T12:34:41.979Z,67.50
2017-12-25T12:35:46.884Z,67.50
2017-12-25T12:36:51.906Z,67.50
2017-12-25T12:37:56.697Z,67.50
2017-12-25T12:39:02.572Z,67.50
2017-12-25T12:40:07.438Z,67.50
2017-12-25T12:41:13.067Z,67.50
2017-12-25T12:42:18.135Z,67.50
2017-12-25T12:43:22.893Z,67.50
2017-12-25T12:44:28.013Z,67.50
2017-12-25T12:45:33.575Z,67.60
2017-12-25T12:46:38.343Z,67.80
2017-12-25T12:47:43.115Z,67.80
2017-12-25T12:48:47.922Z,67.80
2017-12-25T12:49:52.960Z,67.90
2017-12-25T12:50:58.000Z,68.10
2017-12-25T12:52:02.806Z,68.40
2017-12-25T12:53:07.633Z,68.50
2017-12-25T12:54:12.401Z,68.60
2017-12-25T12:55:17.225Z,68.60
2017-12-25T12:56:22.175Z,68.90
2017-12-25T12:57:27.608Z,69.10
2017-12-25T12:58:32.399Z,69.10
2017-12-25T12:59:37.187Z,69.20
2017-12-25T13:00:42.144Z,69.30
2017-12-25T13:01:47.199Z,69.40
2017-12-25T13:02:51.974Z,69.50
2017-12-25T13:03:56.875Z,69.40
2017-12-25T13:05:02.004Z,69.40
2017-12-25T13:06:06.944Z,69.60
2017-12-25T13:07:11.970Z,69.60
2017-12-25T13:08:17.385Z,69.70
2017-12-25T13:09:22.404Z,69.80
2017-12-25T13:10:27.220Z,69.80
2017-12-25T13:11:32.070Z,69.90
2017-12-25T13:12:36.951Z,70.00
2017-12-25T13:13:41.776Z,70.00
2017-12-25T13:14:46.748Z,70.10
2017-12-25T13:15:52.098Z,70.20
2017-12-25T13:16:57.158Z,70.30
2017-12-25T13:18:02.178Z,70.40
2017-12-25T13:19:07.049Z,70.30
2017-12-25T13:20:12.484Z,70.30
2017-12-25T13:21:17.518Z,70.40
2017-12-25T13:22:22.489Z,70.30
2017-12-25T13:23:27.464Z,70.50
2017-12-25T13:24:33.153Z,70.60
2017-12-25T13:25:38.119Z,70.50
2017-12-25T13:26:42.967Z,70.60
2017-12-25T13:27:47.906Z,70.70
2017-12-25T13:28:52.692Z,70.50
2017-12-25T13:29:57.630Z,70.60
2017-12-25T13:31:02.721Z,70.70
2017-12-25T13:32:07.730Z,71.40
2017-12-25T13:33:12.557Z,70.60
2017-12-25T13:34:17.916Z,70.50
2017-12-25T13:35:22.946Z,70.60
2017-12-25T13:36:27.868Z,70.60
2017-12-25T13:37:32.780Z,70.50
2017-12-25T13:38:37.564Z,70.50
2017-12-25T13:39:42.413Z,70.40
2017-12-25T13:40:47.187Z,70.30
2017-12-25T13:41:52.150Z,70.20
2017-12-25T13:42:57.151Z,70.30
2017-12-25T13:44:02.157Z,70.30
2017-12-25T13:45:18.843Z,70.20
2017-12-25T13:46:23.630Z,70.30
2017-12-25T13:47:28.427Z,70.30
2017-12-25T13:48:33.260Z,70.30
2017-12-25T13:49:38.170Z,70.20
2017-12-25T13:50:43.085Z,70.30
2017-12-25T13:51:48.335Z,70.30
2017-12-25T13:52:53.266Z,70.50
2017-12-25T13:53:58.173Z,70.50
2017-12-25T13:55:03.098Z,70.60
2017-12-25T13:56:08.311Z,70.60
2017-12-25T13:57:13.186Z,70.70
2017-12-25T13:58:21.530Z,70.90
2017-12-25T13:59:29.904Z,70.90